createdAt,value
2023-01-20T00:01:25.588Z,9.23
2023-01-20T00:03:53.760Z,10.30
2023-01-20T00:06:23.128Z,10.57
2023-01-20T00:08:54.162Z,10.27
2023-01-20T00:11:22.106Z,9.48
2023-01-20T00:13:49.822Z,9.48
2023-01-20T00:16:17.552Z,10.20
2023-01-20T00:18:45.123Z,10.73
2023-01-20T00:21:13.554Z,9.05
2023-01-20T00:23:42.460Z,10.10
2023-01-20T00:26:10.936Z,11.15
2023-01-20T00:28:39.030Z,9.95
2023-01-20T00:31:13.269Z,10.73
2023-01-20T00:36:09.034Z,9.52
2023-01-20T00:38:36.609Z,10.90
2023-01-20T00:41:05.977Z,10.95
2023-01-20T00:43:33.748Z,10.02
2023-01-20T00:46:01.326Z,9.75
2023-01-20T00:48:28.895Z,11.38
2023-01-20T00:50:56.452Z,10.32
2023-01-20T00:53:23.934Z,10.55
2023-01-20T00:55:51.427Z,10.57
2023-01-20T00:58:20.313Z,9.90
2023-01-20T01:00:48.171Z,11.25
2023-01-20T01:03:15.843Z,9.73
2023-01-20T01:05:43.629Z,10.40
2023-01-20T01:08:11.755Z,9.27
2023-01-20T01:10:39.343Z,8.85
2023-01-20T01:13:06.884Z,9.68
2023-01-20T01:15:35.753Z,9.18
2023-01-20T01:18:03.475Z,11.38
2023-01-20T01:20:31.265Z,11.82
2023-01-20T01:22:58.808Z,9.77
2023-01-20T01:25:26.396Z,10.18
2023-01-20T01:27:53.921Z,10.48
2023-01-20T01:30:21.584Z,11.13
2023-01-20T01:32:50.474Z,9.48
2023-01-20T01:35:18.033Z,10.25
2023-01-20T01:37:45.548Z,9.07
2023-01-20T01:40:13.223Z,10.07
2023-01-20T01:42:42.899Z,10.18
2023-01-20T01:45:23.657Z,10.52
2023-01-20T01:47:55.500Z,11.02
2023-01-20T01:50:25.190Z,10.57
2023-01-20T01:52:54.277Z,9.80
2023-01-20T01:55:23.547Z,9.55
2023-01-20T01:57:51.344Z,9.93
2023-01-20T02:00:18.943Z,9.43
2023-01-20T02:02:46.861Z,10.75
2023-01-20T02:05:17.511Z,10.63
2023-01-20T02:07:46.464Z,10.60
2023-01-20T02:10:14.613Z,8.45
2023-01-20T02:12:42.938Z,9.75
2023-01-20T02:15:10.786Z,9.18
2023-01-20T02:17:43.126Z,9.98
2023-01-20T02:20:32.724Z,10.23
2023-01-20T02:23:02.698Z,9.40
2023-01-20T02:25:40.471Z,9.50
2023-01-20T02:28:19.209Z,9.43
2023-01-20T02:30:54.201Z,9.40
2023-01-20T02:33:27.499Z,10.70
2023-01-20T02:35:57.533Z,10.00
2023-01-20T02:38:28.312Z,9.98
2023-01-20T02:41:01.347Z,11.40
2023-01-20T02:43:33.005Z,9.60
2023-01-20T02:46:04.571Z,9.65
2023-01-20T02:48:35.235Z,9.95
2023-01-20T02:51:04.952Z,11.57
2023-01-20T02:53:34.598Z,10.98
2023-01-20T02:56:02.264Z,9.85
2023-01-20T02:58:31.991Z,9.40
2023-01-20T03:01:02.695Z,9.88
2023-01-20T03:03:33.959Z,9.23
2023-01-20T03:06:04.975Z,9.18
2023-01-20T03:08:33.348Z,9.20
2023-01-20T03:11:03.404Z,10.27
2023-01-20T03:13:32.688Z,10.10
2023-01-20T03:16:01.456Z,9.77
2023-01-20T03:18:30.080Z,10.65
2023-01-20T03:20:58.672Z,10.77
2023-01-20T03:23:28.361Z,9.60
2023-01-20T03:25:56.461Z,10.27
2023-01-20T03:28:23.968Z,10.73
2023-01-20T03:30:52.077Z,9.88
2023-01-20T03:33:19.821Z,9.98
2023-01-20T03:35:48.924Z,9.25
2023-01-20T03:38:16.413Z,8.30
2023-01-20T03:40:49.469Z,9.27
2023-01-20T03:43:21.054Z,8.30
2023-01-20T03:45:53.911Z,9.38
2023-01-20T03:48:25.722Z,9.95
2023-01-20T03:50:55.124Z,9.38
2023-01-20T03:53:29.032Z,9.23
2023-01-20T03:56:01.258Z,8.77
2023-01-20T03:58:30.503Z,9.10
2023-01-20T04:00:58.807Z,8.63
2023-01-20T04:03:28.116Z,9.20
2023-01-20T04:05:56.824Z,9.30
2023-01-20T04:08:25.454Z,8.95
2023-01-20T04:10:54.054Z,11.60
2023-01-20T04:13:23.024Z,8.85
2023-01-20T04:15:50.889Z,9.05
2023-01-20T04:18:19.200Z,9.10
2023-01-20T04:20:49.048Z,9.10
2023-01-20T04:23:19.545Z,9.27
2023-01-20T04:25:47.076Z,8.85
2023-01-20T04:28:14.569Z,9.38
2023-01-20T04:30:43.526Z,9.57
2023-01-20T04:33:11.069Z,9.00
2023-01-20T04:35:38.663Z,8.27
2023-01-20T04:38:06.521Z,11.35
2023-01-20T04:40:34.040Z,8.65
2023-01-20T04:43:01.544Z,8.70
2023-01-20T04:45:29.069Z,9.13
2023-01-20T04:47:58.031Z,10.23
2023-01-20T04:50:25.556Z,8.40
2023-01-20T04:52:55.423Z,9.10
2023-01-20T04:55:23.034Z,9.27
2023-01-20T04:57:50.625Z,8.07
2023-01-20T05:00:20.139Z,9.50
2023-01-20T05:02:48.065Z,9.07
2023-01-20T05:05:20.062Z,9.68
2023-01-20T05:07:47.575Z,8.90
2023-01-20T05:10:15.136Z,8.65
2023-01-20T05:12:42.695Z,8.27
2023-01-20T05:15:10.545Z,9.77
2023-01-20T05:17:37.994Z,9.45
2023-01-20T05:20:05.857Z,8.35
2023-01-20T05:22:34.746Z,8.73
2023-01-20T05:25:02.751Z,8.98
2023-01-20T05:27:30.398Z,8.15
2023-01-20T05:29:57.906Z,8.27
2023-01-20T05:32:25.452Z,7.95
2023-01-20T05:34:52.966Z,8.68
2023-01-20T05:37:21.181Z,9.57
2023-01-20T05:39:50.169Z,9.55
2023-01-20T05:42:17.688Z,7.75
2023-01-20T05:44:45.158Z,9.23
2023-01-20T05:47:12.664Z,8.18
2023-01-20T05:49:40.164Z,8.48
2023-01-20T05:52:07.646Z,8.93
2023-01-20T05:54:35.192Z,9.43
2023-01-20T05:57:05.698Z,8.65
2023-01-20T05:59:33.203Z,9.70
2023-01-20T06:02:00.744Z,9.75
2023-01-20T06:04:28.604Z,10.18
2023-01-20T06:06:56.219Z,8.00
2023-01-20T06:09:24.216Z,9.48
2023-01-20T06:11:52.071Z,9.57
2023-01-20T06:14:21.028Z,9.05
2023-01-20T06:16:48.544Z,8.90
2023-01-20T06:19:16.188Z,8.50
2023-01-20T06:21:45.442Z,11.73
2023-01-20T06:24:14.559Z,9.13
2023-01-20T06:26:42.073Z,8.65
2023-01-20T06:29:09.554Z,8.85
2023-01-20T06:31:38.513Z,8.15
2023-01-20T06:34:06.064Z,8.32
2023-01-20T06:36:33.690Z,7.95
2023-01-20T06:39:01.165Z,8.15
2023-01-20T06:41:28.927Z,8.43
2023-01-20T06:43:56.525Z,8.18
2023-01-20T06:46:24.084Z,7.28
2023-01-20T06:48:58.700Z,7.13
2023-01-20T06:51:26.215Z,8.77
2023-01-20T06:53:54.224Z,7.55
2023-01-20T06:56:21.720Z,7.75
2023-01-20T06:58:49.360Z,8.43
2023-01-20T07:01:25.064Z,8.52
2023-01-20T07:03:54.076Z,8.52
2023-01-20T07:06:25.965Z,8.85
2023-01-20T07:08:53.831Z,8.48
2023-01-20T07:11:21.361Z,9.38
2023-01-20T07:13:49.175Z,8.50
2023-01-20T07:16:16.757Z,9.23
2023-01-20T07:18:44.733Z,9.15
2023-01-20T07:21:14.221Z,8.77
2023-01-20T07:23:41.874Z,9.02
2023-01-20T07:26:11.212Z,9.38
2023-01-20T07:28:38.758Z,10.02
2023-01-20T07:31:06.838Z,8.20
2023-01-20T07:33:34.638Z,8.63
2023-01-20T07:36:02.405Z,8.13
2023-01-20T07:38:31.358Z,9.02
2023-01-20T07:40:59.118Z,9.20
2023-01-20T07:43:26.623Z,8.57
2023-01-20T07:45:55.764Z,8.27
2023-01-20T07:48:26.191Z,7.82
2023-01-20T07:50:57.835Z,8.50
2023-01-20T07:53:25.356Z,8.23
2023-01-20T07:55:54.779Z,7.90
2023-01-20T07:58:22.333Z,7.85
2023-01-20T08:00:49.898Z,8.02
2023-01-20T08:03:17.441Z,7.43
2023-01-20T08:05:44.968Z,8.23
2023-01-20T08:08:12.507Z,8.35
2023-01-20T08:10:40.006Z,7.93
2023-01-20T08:13:09.084Z,6.93
2023-01-20T08:15:36.625Z,7.45
2023-01-20T08:18:04.310Z,8.95
2023-01-20T08:20:31.822Z,7.32
2023-01-20T08:22:59.365Z,7.97
2023-01-20T08:25:26.967Z,7.70
2023-01-20T08:27:54.450Z,9.75
2023-01-20T08:30:23.345Z,7.97
2023-01-20T08:32:50.888Z,8.10
2023-01-20T08:35:18.490Z,8.30
2023-01-20T08:37:46.013Z,7.63
2023-01-20T08:40:13.865Z,8.10
2023-01-20T08:42:42.080Z,9.18
2023-01-20T08:45:10.260Z,9.38
2023-01-20T08:47:39.957Z,9.23
2023-01-20T08:50:08.288Z,12.23
2023-01-20T08:52:36.091Z,7.53
2023-01-20T08:55:03.589Z,8.50
2023-01-20T08:57:31.181Z,8.98
2023-01-20T08:59:58.784Z,8.65
2023-01-20T09:02:26.465Z,7.82
2023-01-20T09:04:55.381Z,7.28
2023-01-20T09:07:23.111Z,7.85
2023-01-20T09:09:50.689Z,7.63
2023-01-20T09:12:18.157Z,9.15
2023-01-20T09:14:45.636Z,7.55
2023-01-20T09:17:14.699Z,7.75
2023-01-20T09:19:42.363Z,7.95
2023-01-20T09:22:11.288Z,8.32
2023-01-20T09:24:38.796Z,9.00
2023-01-20T09:27:06.308Z,8.85
2023-01-20T09:29:33.838Z,9.63
2023-01-20T09:32:01.332Z,9.18
2023-01-20T09:34:29.821Z,10.00
2023-01-20T09:36:58.971Z,7.97
2023-01-20T09:39:45.280Z,9.13
2023-01-20T09:42:54.802Z,9.30
2023-01-20T09:45:25.768Z,9.25
2023-01-20T09:47:57.398Z,9.57
2023-01-20T09:50:47.470Z,9.55
2023-01-20T09:53:25.664Z,9.32
2023-01-20T09:55:56.386Z,9.13
2023-01-20T09:58:28.815Z,10.82
2023-01-20T10:00:58.466Z,8.43
2023-01-20T10:03:30.354Z,9.40
2023-01-20T10:05:59.566Z,8.77
2023-01-20T10:08:30.353Z,8.93
2023-01-20T10:11:01.474Z,8.48
2023-01-20T10:13:32.765Z,8.20
2023-01-20T10:16:01.917Z,8.32
2023-01-20T10:18:31.223Z,7.85
2023-01-20T10:21:03.205Z,11.52
2023-01-20T10:23:33.429Z,8.25
2023-01-20T10:26:06.351Z,7.85
2023-01-20T10:28:37.684Z,9.20
2023-01-20T10:31:06.520Z,8.27
2023-01-20T10:33:38.418Z,8.48
2023-01-20T10:36:11.267Z,10.00
2023-01-20T10:38:42.269Z,8.20
2023-01-20T10:41:21.151Z,9.20
2023-01-20T10:43:48.969Z,9.00
2023-01-20T10:46:19.713Z,7.85
2023-01-20T10:49:03.537Z,10.55
2023-01-20T10:51:33.719Z,8.67
2023-01-20T10:54:08.047Z,8.85
2023-01-20T10:56:39.279Z,9.15
2023-01-20T10:59:13.815Z,8.70
2023-01-20T11:01:42.573Z,7.68
2023-01-20T11:04:16.514Z,10.15
2023-01-20T11:06:44.398Z,9.48
2023-01-20T11:09:20.437Z,7.95
2023-01-20T11:11:49.558Z,9.75
2023-01-20T11:14:17.803Z,7.15
2023-01-20T11:16:48.185Z,7.30
2023-01-20T11:19:18.612Z,7.70
2023-01-20T11:21:53.974Z,8.10
2023-01-20T11:24:42.584Z,7.53
2023-01-20T11:27:15.466Z,7.35
2023-01-20T11:29:44.797Z,6.63
2023-01-20T11:32:28.516Z,7.40
2023-01-20T11:34:56.723Z,7.20
2023-01-20T11:37:26.644Z,8.90
2023-01-20T11:40:01.799Z,7.55
2023-01-20T11:42:31.169Z,6.57
2023-01-20T11:45:15.334Z,6.93
2023-01-20T11:47:47.256Z,7.50
2023-01-20T11:50:21.034Z,9.02
2023-01-20T11:52:48.684Z,6.75
2023-01-20T11:55:18.013Z,8.02
2023-01-20T11:57:48.072Z,6.90
2023-01-20T12:00:30.604Z,7.00
2023-01-20T12:02:58.636Z,7.93
2023-01-20T12:05:29.382Z,7.82
2023-01-20T12:08:00.590Z,6.55
2023-01-20T12:10:59.575Z,6.95
2023-01-20T12:13:30.019Z,8.23
2023-01-20T12:16:01.438Z,6.55
2023-01-20T12:18:34.224Z,9.65
2023-01-20T12:21:10.910Z,7.53
2023-01-20T12:23:46.669Z,7.88
2023-01-20T12:26:18.193Z,7.28
2023-01-20T12:28:57.916Z,7.88
2023-01-20T12:31:25.610Z,6.72
2023-01-20T12:34:07.421Z,7.20
2023-01-20T12:36:52.903Z,7.20
2023-01-20T12:39:35.209Z,6.72
2023-01-20T12:42:22.659Z,6.85
2023-01-20T12:44:54.687Z,6.60
2023-01-20T12:47:29.952Z,7.22
2023-01-20T12:50:05.529Z,7.45
2023-01-20T12:52:41.672Z,7.28
2023-01-20T12:55:17.110Z,6.28
2023-01-20T12:57:52.562Z,8.07
2023-01-20T13:00:28.702Z,7.90
2023-01-20T13:03:02.971Z,6.47
2023-01-20T13:05:46.620Z,6.25
2023-01-20T13:08:18.618Z,7.03
2023-01-20T13:10:57.682Z,7.57
2023-01-20T16:16:31.122Z,15.75
2023-01-20T16:18:59.231Z,14.90
2023-01-20T16:21:27.015Z,15.32
2023-01-20T16:23:54.476Z,18.10
2023-01-20T16:26:23.259Z,17.02
2023-01-20T16:28:51.455Z,17.98
2023-01-20T16:31:25.372Z,19.42
2023-01-20T16:33:54.992Z,15.88
2023-01-20T16:36:23.905Z,16.00
2023-01-20T16:38:52.102Z,14.55
2023-01-20T16:41:21.793Z,15.77
2023-01-20T16:43:49.909Z,16.02
2023-01-20T16:46:19.331Z,15.45
2023-01-20T16:48:47.134Z,14.70
2023-01-20T16:51:17.427Z,13.30
2023-01-20T16:53:50.122Z,14.20
2023-01-20T16:56:22.518Z,14.27
2023-01-20T16:58:52.104Z,12.63
2023-01-20T17:01:26.954Z,13.20
2023-01-20T17:03:57.971Z,14.20
2023-01-20T17:06:29.153Z,11.88
2023-01-20T17:08:58.018Z,12.63
2023-01-20T17:11:45.995Z,11.02
2023-01-20T17:18:33.647Z,10.10
2023-01-20T17:20:47.706Z,11.02
2023-01-20T17:23:30.934Z,11.43
2023-01-20T17:26:04.866Z,11.07
2023-01-20T17:28:34.465Z,11.18
2023-01-20T17:31:03.519Z,11.00
2023-01-20T17:33:31.279Z,9.73
2023-01-20T17:36:37.050Z,10.40
2023-01-20T17:39:16.847Z,9.52
2023-01-20T17:41:45.399Z,10.93
2023-01-20T17:44:14.783Z,10.60
2023-01-20T17:46:43.352Z,9.38
2023-01-20T17:49:12.220Z,9.65
2023-01-20T17:51:40.451Z,10.25
2023-01-20T17:54:10.388Z,9.38
2023-01-20T17:56:43.031Z,10.20
2023-01-20T17:59:15.570Z,10.25
2023-01-20T18:01:44.491Z,9.38
2023-01-20T18:04:12.007Z,10.20
2023-01-20T18:06:39.570Z,9.57
2023-01-20T18:09:08.194Z,9.32
2023-01-20T18:11:37.965Z,9.73
2023-01-20T18:14:07.439Z,10.25
2023-01-20T18:16:36.829Z,10.40
2023-01-20T18:19:04.911Z,10.18
2023-01-20T18:21:33.259Z,9.68
2023-01-20T18:24:02.516Z,9.85
2023-01-20T18:26:31.571Z,11.43
2023-01-20T18:29:01.150Z,10.65
2023-01-20T18:31:30.655Z,10.55
2023-01-20T18:34:00.695Z,11.68
2023-01-20T18:36:29.555Z,11.05
2023-01-20T18:38:58.665Z,10.77
2023-01-20T18:41:26.995Z,11.05
2023-01-20T18:43:55.105Z,10.95
2023-01-20T18:46:25.321Z,11.48
2023-01-20T18:48:54.770Z,11.73
2023-01-20T18:51:23.451Z,11.93
2023-01-20T18:53:59.667Z,12.57
2023-01-20T18:56:28.202Z,11.40
2023-01-20T18:58:56.191Z,13.07
2023-01-20T19:01:28.742Z,13.23
2023-01-20T19:03:56.732Z,14.25
2023-01-20T19:06:25.526Z,13.75
2023-01-20T19:08:53.304Z,13.45
2023-01-20T19:11:21.584Z,13.20
2023-01-20T19:13:50.094Z,15.32
2023-01-20T19:16:18.775Z,14.45
2023-01-20T19:18:50.969Z,15.13
2023-01-20T19:21:19.506Z,12.75
2023-01-20T19:23:49.377Z,14.48
2023-01-20T19:26:18.800Z,14.43
2023-01-20T19:28:48.648Z,13.27
2023-01-20T19:31:17.858Z,15.60
2023-01-20T19:33:48.898Z,15.07
2023-01-20T19:36:19.736Z,15.15
2023-01-20T19:38:47.343Z,15.20
2023-01-20T19:41:16.625Z,15.10
2023-01-20T19:43:44.675Z,16.25
2023-01-20T19:46:13.417Z,15.68
2023-01-20T19:48:41.324Z,16.10
2023-01-20T19:51:13.708Z,15.98
2023-01-20T19:53:41.671Z,16.05
2023-01-20T19:56:11.577Z,16.70
2023-01-20T19:58:40.183Z,15.50
2023-01-20T20:01:08.413Z,15.27
2023-01-20T20:03:36.678Z,16.90
2023-01-20T20:06:04.962Z,16.90
2023-01-20T20:08:36.225Z,16.90
2023-01-20T20:11:03.955Z,16.40
2023-01-20T20:13:31.729Z,17.30
2023-01-20T20:16:02.859Z,19.20
2023-01-20T20:18:30.644Z,16.92
2023-01-20T20:20:58.520Z,18.10
2023-01-20T20:23:26.395Z,17.63
2023-01-20T20:25:56.745Z,17.52
2023-01-20T20:28:26.061Z,18.35
2023-01-20T20:30:55.689Z,17.23
2023-01-20T20:33:24.410Z,17.95
2023-01-20T20:35:52.687Z,15.68
2023-01-20T20:38:20.608Z,16.80
2023-01-20T20:40:49.025Z,17.65
2023-01-20T20:43:19.888Z,16.83
2023-01-20T20:45:47.818Z,18.05
2023-01-20T20:48:15.441Z,15.77
2023-01-20T20:50:43.078Z,16.42
2023-01-20T20:53:10.901Z,18.25
2023-01-20T20:55:41.683Z,16.70
2023-01-20T20:58:09.625Z,18.15
2023-01-20T21:00:38.621Z,16.48
2023-01-20T21:03:07.684Z,16.90
2023-01-20T21:05:36.292Z,17.30
2023-01-20T21:08:06.847Z,17.42
2023-01-20T21:10:34.420Z,17.50
2023-01-20T21:13:02.690Z,17.05
2023-01-20T21:15:30.964Z,17.65
2023-01-20T21:17:59.894Z,17.55
2023-01-20T21:20:35.189Z,17.27
2023-01-20T21:23:04.596Z,16.98
2023-01-20T21:25:35.416Z,17.80
2023-01-20T21:28:03.258Z,18.88
2023-01-20T21:30:31.114Z,16.88
2023-01-20T21:33:02.964Z,17.58
2023-01-20T21:35:30.887Z,19.05
2023-01-20T21:38:01.457Z,17.38
2023-01-20T21:40:34.546Z,19.02
2023-01-20T21:43:31.389Z,17.00
2023-01-20T21:45:59.593Z,16.20
2023-01-20T21:48:46.998Z,18.30
2023-01-20T21:51:32.487Z,16.88
2023-01-20T21:54:00.767Z,18.02
2023-01-20T21:56:28.826Z,17.40
2023-01-20T21:58:56.333Z,17.52
2023-01-20T22:01:23.854Z,18.15
